Time;durP1;ratioP1;P1;durP2;ratioP2;P2;SDS_P1;SDS_P2;PMS_P1;PMS_P2;Temp;Humidity;BMP_temperature;BMP_pressure;BME280_temperature;BME280_humidity;BME280_pressure;Samples;Min_cycle;Max_cycle;Signal;HPM_P1;HPM_P2
2021/11/08 00:00:28;;;;;;;6.82;4.55;;;;;;;8.27;80.03;100310.66;1088016;54;20047;-78
2021/11/08 00:01:30;;;;;;;7.53;4.05;;;;;;;8.30;80.30;100308.75;1093132;39;20764;-79
2021/11/08 00:02:35;;;;;;;7.03;4.55;;;;;;;8.30;80.25;100304.25;1088007;54;20023;-79
2021/11/08 00:03:40;;;;;;;5.95;3.97;;;;;;;8.27;80.18;100308.00;1088040;54;20022;-79
2021/11/08 00:04:45;;;;;;;6.40;4.28;;;;;;;8.25;80.15;100307.28;1087926;54;20035;-80
2021/11/08 00:05:47;;;;;;;6.90;4.30;;;;;;;8.26;80.15;100303.66;1088018;54;20038;-80
2021/11/08 00:06:52;;;;;;;6.50;4.00;;;;;;;8.30;80.19;100308.75;1088087;54;20022;-79
2021/11/08 00:08:00;;;;;;;6.28;4.32;;;;;;;8.31;79.95;100305.94;1087949;54;20030;-79
2021/11/08 00:09:03;;;;;;;6.47;4.55;;;;;;;8.26;80.10;100308.97;1087864;54;20056;-79
2021/11/08 00:10:09;;;;;;;6.53;4.53;;;;;;;8.25;79.90;100307.28;1088024;54;20058;-80
2021/11/08 00:11:10;;;;;;;6.35;3.90;;;;;;;8.26;80.05;100311.63;1090031;39;20671;-79
2021/11/08 00:12:17;;;;;;;8.23;4.57;;;;;;;8.26;79.77;100310.81;1087958;54;20161;-79
2021/11/08 00:13:18;;;;;;;5.63;3.83;;;;;;;8.27;80.20;100308.00;1088286;54;20038;-79
2021/11/08 00:14:23;;;;;;;8.70;4.53;;;;;;;8.31;80.08;100313.09;1088318;54;20031;-80
2021/11/08 00:15:35;;;;;;;5.95;4.05;;;;;;;8.28;80.10;100307.03;1088271;54;20035;-78
2021/11/08 00:16:45;;;;;;;6.93;4.32;;;;;;;8.31;79.98;100313.09;1088370;54;20092;-80
2021/11/08 00:17:55;;;;;;;6.55;4.00;;;;;;;8.33;79.84;100308.47;1088393;54;20034;-78
2021/11/08 00:19:13;;;;;;;;;;;;;;;8.23;79.79;100311.88;1088581;54;20026;-80
2021/11/08 00:20:22;;;;;;;7.20;4.63;;;;;;;8.17;80.03;100309.72;1088540;54;19942;-79
2021/11/08 00:21:30;;;;;;;6.13;4.25;;;;;;;8.12;80.24;100317.25;1088409;54;20074;-79
2021/11/08 00:22:35;;;;;;;7.18;3.85;;;;;;;8.16;80.07;100317.84;1088461;54;20030;-80
2021/11/08 00:23:39;;;;;;;6.60;4.55;;;;;;;8.18;80.14;100310.53;1088350;54;20019;-79
2021/11/08 00:24:45;;;;;;;6.47;4.40;;;;;;;8.19;79.84;100318.44;1091282;46;20026;-79
2021/11/08 00:25:50;;;;;;;7.28;4.75;;;;;;;8.17;79.88;100308.88;1088404;54;20083;-79
2021/11/08 00:26:53;;;;;;;9.57;5.88;;;;;;;8.09;80.29;100306.81;1088503;54;20071;-79
2021/11/08 00:27:57;;;;;;;7.85;4.80;;;;;;;8.14;80.04;100315.28;1088356;54;20022;-78
2021/11/08 00:29:00;;;;;;;9.57;4.65;;;;;;;8.18;80.11;100322.06;1091746;46;20034;-79
2021/11/08 00:30:07;;;;;;;6.47;4.40;;;;;;;8.14;80.09;100314.44;1088350;54;20025;-79
2021/11/08 00:31:11;;;;;;;7.65;5.20;;;;;;;8.19;79.93;100312.25;1088156;54;20030;-79
2021/11/08 00:32:15;;;;;;;7.40;5.03;;;;;;;8.01;80.29;100320.72;1088318;46;20022;-79
2021/11/08 00:33:19;;;;;;;10.20;6.43;;;;;;;7.87;80.74;100315.66;1088147;54;20058;-78
2021/11/08 00:34:23;;;;;;;8.32;5.90;;;;;;;7.90;80.79;100310.94;1087891;54;20022;-80
2021/11/08 00:35:24;;;;;;;8.02;5.30;;;;;;;7.99;80.88;100312.00;1088168;46;20034;-79
2021/11/08 00:36:28;;;;;;;7.88;5.25;;;;;;;7.98;80.76;100313.00;1087721;54;20030;-79
2021/11/08 00:37:30;;;;;;;8.63;5.68;;;;;;;8.00;80.74;100318.19;1087855;54;20041;-79
2021/11/08 00:38:34;;;;;;;8.57;5.45;;;;;;;7.97;80.80;100311.31;1087997;54;20023;-79
2021/11/08 00:39:38;;;;;;;10.57;7.03;;;;;;;7.87;81.10;100318.31;1087921;54;20042;-80
2021/11/08 00:40:43;;;;;;;10.32;6.65;;;;;;;7.74;81.62;100311.28;1088015;54;20116;-78
2021/11/08 00:41:44;;;;;;;8.68;6.40;;;;;;;7.72;81.42;100309.72;1087989;54;20034;-78
2021/11/08 00:42:48;;;;;;;11.27;7.07;;;;;;;7.67;81.67;100306.56;1087925;54;20770;-79
2021/11/08 00:43:50;;;;;;;10.88;7.38;;;;;;;7.54;82.28;100315.53;1087818;54;20030;-79
2021/11/08 00:44:54;;;;;;;10.02;7.35;;;;;;;7.54;82.23;100310.19;1087939;54;20034;-79
2021/11/08 00:45:56;;;;;;;10.40;6.95;;;;;;;7.56;82.39;100305.56;1087931;54;20061;-79
2021/11/08 00:47:07;;;;;;;12.32;7.07;;;;;;;7.48;82.56;100310.66;1087912;54;20030;-79
2021/11/08 00:48:09;;;;;;;10.48;7.05;;;;;;;7.54;82.32;100309.34;1087923;54;20778;-79
2021/11/08 00:49:15;;;;;;;10.57;7.20;;;;;;;7.61;81.95;100302.56;1087999;54;20030;-79
2021/11/08 00:50:17;;;;;;;16.20;7.47;;;;;;;7.49;82.61;100309.69;1087911;54;20113;-78
2021/11/08 00:51:23;;;;;;;10.25;6.55;;;;;;;7.47;82.65;100300.97;1088033;54;20015;-80
2021/11/08 00:52:24;;;;;;;9.38;6.82;;;;;;;7.49;82.33;100309.69;1088034;54;20065;-79
2021/11/08 00:53:31;;;;;;;9.98;7.28;;;;;;;7.45;82.24;100309.09;1088246;54;20034;-79
2021/11/08 00:54:33;;;;;;;11.82;6.72;;;;;;;7.44;82.38;100301.22;1088204;54;20830;-78
2021/11/08 00:55:40;;;;;;;10.07;7.13;;;;;;;7.44;82.53;100307.38;1088261;54;20034;-80
2021/11/08 00:56:46;;;;;;;9.30;6.70;;;;;;;7.44;82.54;100307.38;1088213;54;20038;-78
2021/11/08 00:57:53;;;;;;;9.80;7.00;;;;;;;7.55;82.30;100301.25;1090004;46;20026;-79
2021/11/08 00:58:54;;;;;;;9.05;5.50;;;;;;;7.60;81.92;100312.38;1088352;54;20060;-79
2021/11/08 01:00:01;;;;;;;10.75;6.50;;;;;;;7.69;81.54;100316.16;1088138;54;20078;-79
2021/11/08 01:01:05;;;;;;;10.70;6.15;;;;;;;7.74;81.33;100310.47;1088357;54;20038;-78
2021/11/08 01:02:12;;;;;;;7.72;4.95;;;;;;;7.77;81.00;100308.41;1088555;46;20030;-79
2021/11/08 01:03:17;;;;;;;7.22;4.97;;;;;;;7.79;81.02;100316.25;1091514;46;20090;-78
2021/11/08 01:04:24;;;;;;;6.32;4.80;;;;;;;7.78;80.81;100315.44;1088334;54;20055;-79
2021/11/08 01:05:25;;;;;;;7.55;5.35;;;;;;;7.79;80.91;100310.94;1088275;54;20022;-78
2021/11/08 01:06:37;;;;;;;6.63;4.80;;;;;;;7.79;80.85;100310.94;1088337;54;20030;-77
2021/11/08 01:07:38;;;;;;;7.88;5.38;;;;;;;7.82;80.65;100321.34;1088725;46;20057;-79
2021/11/08 01:08:42;;;;;;;7.18;4.63;;;;;;;7.85;80.48;100314.94;1088182;54;20042;-81
2021/11/08 01:09:45;;;;;;;6.43;4.55;;;;;;;7.85;80.35;100315.75;1087923;54;20038;-79
2021/11/08 01:10:49;;;;;;;7.07;4.40;;;;;;;7.89;80.52;100311.03;1087941;54;20754;-79
2021/11/08 01:11:51;;;;;;;6.75;4.57;;;;;;;7.89;80.40;100308.38;1087854;54;20038;-79
2021/11/08 01:12:55;;;;;;;11.10;6.82;;;;;;;7.78;80.48;100317.22;1088393;46;20797;-78
2021/11/08 01:13:57;;;;;;;12.15;6.97;;;;;;;7.72;80.94;100317.72;1088312;39;20239;-79
2021/11/08 01:15:03;;;;;;;8.27;6.00;;;;;;;7.75;80.90;100317.44;1087925;54;20058;-79
2021/11/08 01:16:05;;;;;;;8.50;5.78;;;;;;;7.76;80.85;100317.34;1087811;54;20034;-81
2021/11/08 01:17:12;;;;;;;8.05;5.82;;;;;;;7.76;80.75;100312.03;1087971;54;20054;-79
2021/11/08 01:18:13;;;;;;;7.18;5.20;;;;;;;7.77;80.48;100313.72;1087956;54;20037;-81
2021/11/08 01:19:18;;;;;;;7.40;5.22;;;;;;;7.77;80.52;100312.88;1087949;54;20109;-80
2021/11/08 01:20:21;;;;;;;8.25;5.72;;;;;;;7.79;80.55;100321.56;1087868;54;20046;-79
2021/11/08 01:21:25;;;;;;;8.27;5.25;;;;;;;7.76;80.36;100319.16;1087895;54;20065;-78
2021/11/08 01:22:29;;;;;;;7.65;5.50;;;;;;;7.74;80.60;100319.28;1087899;54;20034;-79
2021/11/08 01:23:32;;;;;;;8.65;6.15;;;;;;;7.75;80.55;100317.44;1087881;54;20061;-78
2021/11/08 01:24:39;;;;;;;7.13;5.00;;;;;;;7.76;80.40;100319.16;1087787;54;20091;-79
2021/11/08 01:25:41;;;;;;;7.45;5.32;;;;;;;7.74;80.77;100305.97;1087915;54;20035;-79
2021/11/08 01:26:47;;;;;;;8.05;5.03;;;;;;;7.76;80.57;100311.16;1087904;54;20030;-79
2021/11/08 01:27:53;;;;;;;6.85;4.55;;;;;;;7.76;80.35;100321.81;1088050;54;20120;-79
2021/11/08 01:28:57;;;;;;;9.00;5.03;;;;;;;7.74;80.65;100318.44;1091453;39;20698;-79
2021/11/08 01:29:59;;;;;;;7.13;5.20;;;;;;;7.75;80.51;100310.34;1087955;54;20041;-79
2021/11/08 01:31:06;;;;;;;7.95;4.97;;;;;;;7.74;80.60;100313.97;1087876;54;20111;-79
2021/11/08 01:32:13;;;;;;;7.57;5.65;;;;;;;7.72;80.35;100315.88;1087741;54;20102;-79
2021/11/08 01:33:17;;;;;;;8.18;6.13;;;;;;;7.71;80.36;100318.69;1094016;39;20278;-80
2021/11/08 01:34:21;;;;;;;9.98;5.53;;;;;;;7.71;80.36;100318.69;1088048;54;20034;-80
2021/11/08 01:35:30;;;;;;;10.43;6.13;;;;;;;7.64;80.47;100313.84;1088380;46;20027;-79
2021/11/08 01:36:37;;;;;;;9.52;5.95;;;;;;;7.60;80.63;100323.00;1088204;54;20136;-78
2021/11/08 01:37:41;;;;;;;8.68;5.88;;;;;;;7.61;80.38;100321.19;1089487;46;20059;-80
2021/11/08 01:38:49;;;;;;;9.32;5.53;;;;;;;7.58;80.75;100324.09;1088241;54;20042;-78
2021/11/08 01:39:53;;;;;;;10.52;6.75;;;;;;;7.42;81.24;100327.09;1088989;46;20102;-80
2021/11/08 01:40:56;;;;;;;9.25;6.70;;;;;;;7.41;81.14;100326.25;1088207;54;20038;-79
2021/11/08 01:42:01;;;;;;;12.48;7.18;;;;;;;7.36;81.50;100332.88;1088234;54;20042;-81
2021/11/08 01:43:05;;;;;;;8.38;6.55;;;;;;;7.32;81.64;100329.63;1090497;46;20031;-78
2021/11/08 01:44:10;;;;;;;9.93;6.68;;;;;;;7.28;81.67;100331.63;1088207;54;20025;-78
2021/11/08 01:45:12;;;;;;;10.48;8.05;;;;;;;7.15;82.12;100334.38;1088221;54;20019;-79
2021/11/08 01:46:17;;;;;;;14.40;8.75;;;;;;;7.03;82.37;100336.16;1087950;54;20774;-79
2021/11/08 01:47:24;;;;;;;13.55;8.40;;;;;;;6.97;83.07;100339.28;1087891;54;20742;-78
2021/11/08 01:48:26;;;;;;;15.07;8.77;;;;;;;6.98;82.92;100345.44;1090277;39;20703;-79
2021/11/08 01:49:31;;;;;;;10.75;8.30;;;;;;;7.06;82.90;100339.56;1087852;54;20031;-79
2021/11/08 01:50:33;;;;;;;12.00;8.35;;;;;;;7.16;82.66;100336.09;1087822;54;20786;-79
2021/11/08 01:51:37;;;;;;;10.98;8.02;;;;;;;7.24;82.16;100337.31;1088832;39;20711;-80
2021/11/08 01:52:39;;;;;;;8.93;6.60;;;;;;;7.33;81.71;100342.78;1087892;54;20047;-79
2021/11/08 01:53:44;;;;;;;10.10;6.40;;;;;;;7.35;81.60;100340.00;1087916;54;20047;-80
2021/11/08 01:54:45;;;;;;;11.35;8.10;;;;;;;7.15;82.06;100339.69;1087893;54;20038;-80
2021/11/08 01:55:50;;;;;;;11.85;7.88;;;;;;;7.14;82.41;100337.16;1087824;54;20055;-79
2021/11/08 01:56:53;;;;;;;12.25;8.00;;;;;;;7.08;82.58;100348.28;1087799;54;20035;-78
2021/11/08 01:57:58;;;;;;;10.70;7.97;;;;;;;7.13;82.64;100343.44;1089439;31;20816;-78
2021/11/08 01:59:00;;;;;;;13.63;8.48;;;;;;;7.11;82.55;100343.56;1087821;54;20043;-79
2021/11/08 02:00:04;;;;;;;13.77;8.15;;;;;;;7.12;82.43;100344.41;1087865;54;20738;-80
2021/11/08 02:01:06;;;;;;;11.23;7.85;;;;;;;7.17;82.21;100340.44;1087786;54;20030;-79
2021/11/08 02:02:10;;;;;;;11.05;8.18;;;;;;;7.20;82.09;100344.66;1087877;54;20054;-80
2021/11/08 02:03:15;;;;;;;9.45;6.47;;;;;;;7.29;81.83;100351.13;1087865;54;20770;-79
2021/11/08 02:04:20;;;;;;;10.48;6.75;;;;;;;7.37;81.63;100348.72;1087740;54;20114;-80
2021/11/08 02:05:22;;;;;;;9.77;7.15;;;;;;;7.34;81.83;100339.16;1087788;54;20030;-79
2021/11/08 02:06:26;;;;;;;10.63;6.53;;;;;;;7.38;81.45;100349.56;1087961;54;20042;-79
2021/11/08 02:07:28;;;;;;;11.20;6.60;;;;;;;7.40;81.47;100344.97;1087879;54;20822;-77
2021/11/08 02:08:33;;;;;;;8.27;6.20;;;;;;;7.41;81.49;100344.00;1089715;39;20877;-79
2021/11/08 02:09:35;;;;;;;9.43;6.28;;;;;;;7.41;81.32;100344.88;1087779;54;20019;-78
2021/11/08 02:10:40;;;;;;;8.70;6.20;;;;;;;7.43;81.38;100347.41;1087841;54;20034;-78
2021/11/08 02:11:42;;;;;;;9.75;6.57;;;;;;;7.49;80.95;100354.91;1087828;54;20061;-78
2021/11/08 02:12:47;;;;;;;9.98;6.07;;;;;;;7.45;81.12;100353.47;1087852;54;20030;-78
2021/11/08 02:13:53;;;;;;;8.98;6.65;;;;;;;7.42;81.33;100345.72;1087802;54;20076;-79
2021/11/08 02:14:54;;;;;;;11.68;6.40;;;;;;;7.44;81.02;100346.44;1089268;39;20697;-79
2021/11/08 02:15:59;;;;;;;8.43;6.15;;;;;;;7.46;81.16;100341.88;1087775;54;20066;-81
2021/11/08 02:17:03;;;;;;;8.27;5.60;;;;;;;7.47;80.85;100347.06;1093893;39;20651;-78
2021/11/08 02:18:06;;;;;;;9.68;6.35;;;;;;;7.45;81.04;100346.31;1089958;46;20058;-80
2021/11/08 02:19:13;;;;;;;8.95;6.68;;;;;;;7.44;80.92;100343.78;1087874;54;20018;-78
2021/11/08 02:20:19;;;;;;;9.07;6.60;;;;;;;7.45;80.83;100345.50;1087801;54;20041;-78
2021/11/08 02:21:24;;;;;;;8.77;6.13;;;;;;;7.46;80.80;100347.19;1089098;39;20301;-80
2021/11/08 02:22:26;;;;;;;10.80;6.60;;;;;;;7.45;80.91;100351.66;1087854;54;20030;-79
2021/11/08 02:23:30;;;;;;;8.52;6.32;;;;;;;7.38;80.85;100344.25;1087855;54;20030;-80
2021/11/08 02:24:34;;;;;;;9.45;6.75;;;;;;;7.39;80.52;100348.59;1087820;54;20026;-78
2021/11/08 02:25:41;;;;;;;8.60;6.43;;;;;;;7.37;80.70;100346.06;1087896;54;20026;-80
2021/11/08 02:26:45;;;;;;;10.73;6.55;;;;;;;7.37;80.72;100355.88;1087856;54;20056;-79
2021/11/08 02:27:50;;;;;;;9.55;6.22;;;;;;;7.36;80.71;100352.34;1087909;54;20014;-79
2021/11/08 02:28:53;;;;;;;11.27;6.43;;;;;;;7.26;80.92;100352.22;1087885;54;20046;-79
2021/11/08 02:29:57;;;;;;;11.93;7.35;;;;;;;7.27;80.64;100356.56;1087827;54;20770;-79
2021/11/08 02:30:59;;;;;;;8.90;7.13;;;;;;;7.25;81.06;100355.81;1091289;39;20634;-78
2021/11/08 02:32:04;;;;;;;9.75;6.43;;;;;;;7.21;80.88;100358.84;1087860;54;20065;-78
2021/11/08 02:33:09;;;;;;;9.45;6.47;;;;;;;7.23;81.02;100349.78;1087753;54;20030;-79
2021/11/08 02:34:14;;;;;;;9.70;6.68;;;;;;;7.23;80.72;100351.56;1087805;54;20102;-78
2021/11/08 02:35:19;;;;;;;9.55;6.55;;;;;;;7.24;80.67;100361.25;1090355;39;20708;-79
2021/11/08 02:36:24;;;;;;;7.72;6.20;;;;;;;7.26;80.54;100346.88;1087710;54;20783;-80
2021/11/08 02:37:26;;;;;;;7.88;5.95;;;;;;;7.25;80.80;100347.84;1087846;54;20030;-78
2021/11/08 02:38:30;;;;;;;8.57;6.25;;;;;;;7.26;80.80;100346.88;1087794;54;20038;-80
2021/11/08 02:39:36;;;;;;;10.48;6.40;;;;;;;7.25;80.56;100347.84;1090768;39;20605;-78
2021/11/08 02:40:40;;;;;;;9.25;6.07;;;;;;;7.24;80.68;100343.50;1087836;54;20086;-78
2021/11/08 02:41:42;;;;;;;8.90;6.40;;;;;;;7.26;80.55;100344.22;1089433;46;20034;-79
2021/11/08 02:42:48;;;;;;;9.75;6.55;;;;;;;7.24;80.65;100343.50;1088800;39;20706;-79
2021/11/08 02:43:53;;;;;;;10.38;6.75;;;;;;;7.25;80.51;100353.16;1087744;54;20059;-79
2021/11/08 02:44:56;;;;;;;7.65;5.68;;;;;;;7.25;80.86;100353.16;1087817;54;20041;-78
2021/11/08 02:46:06;;;;;;;11.43;6.68;;;;;;;7.22;80.69;100350.72;1087821;54;20055;-79
2021/11/08 02:47:11;;;;;;;9.15;6.53;;;;;;;7.23;80.69;100349.78;1087752;54;20030;-78
2021/11/08 02:48:14;;;;;;;9.27;6.57;;;;;;;7.24;80.63;100355.94;1087783;54;20046;-79
2021/11/08 02:49:18;;;;;;;10.38;7.38;;;;;;;7.17;80.43;100353.72;1087812;54;20034;-79
2021/11/08 02:50:25;;;;;;;12.85;7.43;;;;;;;7.15;80.69;100360.97;1087819;54;20030;-79
2021/11/08 02:51:30;;;;;;;9.15;6.80;;;;;;;7.15;80.49;100354.81;1087774;54;20782;-79
2021/11/08 02:52:31;;;;;;;10.68;6.90;;;;;;;7.15;80.71;100366.28;1087771;54;20061;-79
2021/11/08 02:53:37;;;;;;;11.20;8.23;;;;;;;7.12;80.64;100361.22;1087746;54;20098;-79
2021/11/08 02:54:41;;;;;;;9.52;6.85;;;;;;;7.14;80.70;100361.09;1087792;54;20148;-78
2021/11/08 02:55:45;;;;;;;12.70;7.45;;;;;;;7.12;80.64;100366.53;1087859;54;20026;-77
2021/11/08 02:56:47;;;;;;;11.40;7.05;;;;;;;7.14;80.94;100355.78;1087738;54;20053;-79
2021/11/08 02:57:52;;;;;;;9.32;6.35;;;;;;;7.17;80.98;100360.88;1087783;54;20040;-79
2021/11/08 02:58:57;;;;;;;10.68;6.70;;;;;;;7.15;80.87;100362.78;1087759;54;20086;-80
2021/11/08 03:00:01;;;;;;;9.52;6.75;;;;;;;7.12;80.96;100365.69;1087757;54;20049;-78
2021/11/08 03:01:05;;;;;;;8.77;6.03;;;;;;;7.12;80.83;100365.69;1087834;54;20034;-79
2021/11/08 03:02:08;;;;;;;12.00;6.70;;;;;;;7.18;80.60;100370.53;1088616;39;20651;-78
2021/11/08 03:03:12;;;;;;;8.90;6.22;;;;;;;7.20;80.79;100365.94;1087719;54;20058;-80
2021/11/08 03:04:18;;;;;;;9.32;7.00;;;;;;;7.16;80.76;100356.53;1087663;54;20832;-78
2021/11/08 03:05:32;;;;;;;9.98;6.50;;;;;;;7.20;80.44;100373.91;1087702;54;20042;-79
2021/11/08 03:06:34;;;;;;;11.95;7.13;;;;;;;7.14;80.83;100375.22;1087733;54;20031;-79
2021/11/08 03:07:38;;;;;;;9.35;6.28;;;;;;;7.07;81.02;100363.38;1087774;54;20015;-79
2021/11/08 03:08:39;;;;;;;9.70;6.72;;;;;;;7.06;80.90;100364.31;1087761;54;20064;-80
2021/11/08 03:09:48;;;;;;;10.38;7.75;;;;;;;6.98;81.00;100359.59;1087721;54;20037;-77
2021/11/08 03:10:56;;;;;;;9.85;6.93;;;;;;;6.91;80.98;100358.34;1091824;39;20689;-80
2021/11/08 03:12:03;;;;;;;12.10;8.55;;;;;;;6.89;81.32;100362.94;1089569;39;20738;-78
2021/11/08 03:13:11;;;;;;;12.65;8.48;;;;;;;6.75;81.64;100363.09;1087776;54;20042;-80
2021/11/08 03:14:18;;;;;;;12.73;8.70;;;;;;;6.74;81.93;100356.94;1087602;54;20038;-79
2021/11/08 03:15:31;;;;;;;14.10;8.30;;;;;;;6.71;81.71;100360.63;1087755;54;20046;-79
2021/11/08 03:16:40;;;;;;;13.68;9.38;;;;;;;6.63;82.19;100357.69;1087639;54;20038;-79
2021/11/08 03:17:43;;;;;;;14.23;9.25;;;;;;;6.61;82.18;100357.00;1087781;54;20061;-79
2021/11/08 03:18:54;;;;;;;12.13;8.77;;;;;;;6.64;82.01;100359.41;1087758;54;20035;-79
2021/11/08 03:19:58;;;;;;;11.85;9.38;;;;;;;6.64;81.82;100366.53;1087751;54;20021;-80
2021/11/08 03:21:02;;;;;;;11.10;8.02;;;;;;;6.75;81.52;100365.75;1087798;54;20039;-79
2021/11/08 03:22:12;;;;;;;9.85;7.18;;;;;;;6.82;81.45;100372.28;1088912;31;20812;-77
2021/11/08 03:23:13;;;;;;;11.90;7.57;;;;;;;6.82;81.22;100377.59;1087657;54;20035;-79
2021/11/08 03:24:21;;;;;;;14.73;9.88;;;;;;;6.72;81.37;100370.31;1088574;39;20702;-79
2021/11/08 03:25:33;;;;;;;12.90;9.02;;;;;;;6.72;81.40;100374.78;1091993;39;20281;-79
2021/11/08 03:26:44;;;;;;;15.05;9.70;;;;;;;6.69;81.37;100369.69;1089148;39;20727;-79
2021/11/08 03:27:50;;;;;;;12.80;8.68;;;;;;;6.67;81.48;100375.13;1087775;54;20037;-79
2021/11/08 03:28:55;;;;;;;13.18;8.18;;;;;;;6.62;81.64;100376.41;1087715;54;20116;-78
2021/11/08 03:29:58;;;;;;;11.52;8.30;;;;;;;6.58;81.81;100382.91;1087806;54;20034;-79
2021/11/08 03:31:02;;;;;;;14.13;8.80;;;;;;;6.55;82.00;100386.63;1087664;54;20036;-79
2021/11/08 03:32:08;;;;;;;12.63;9.13;;;;;;;6.53;81.79;100375.25;1087654;54;20817;-80
2021/11/08 03:33:12;;;;;;;13.95;7.70;;;;;;;6.55;81.80;100373.34;1087715;54;20039;-79
2021/11/08 03:34:17;;;;;;;14.00;8.68;;;;;;;6.53;82.08;100377.91;1087681;54;20102;-79
2021/11/08 03:35:22;;;;;;;10.18;7.78;;;;;;;6.61;82.02;100378.25;1087711;54;20069;-78
2021/11/08 03:36:28;;;;;;;12.50;8.73;;;;;;;6.65;81.91;100385.00;1087749;54;20040;-78
2021/11/08 03:37:36;;;;;;;12.20;8.70;;;;;;;6.67;81.87;100383.09;1087683;54;20035;-79
2021/11/08 03:38:40;;;;;;;9.48;6.90;;;;;;;6.73;81.66;100381.81;1087655;54;20817;-78
2021/11/08 03:39:42;;;;;;;10.73;7.22;;;;;;;6.77;81.42;100380.59;1090181;31;20714;-78
2021/11/08 03:40:49;;;;;;;11.13;6.55;;;;;;;6.79;81.40;100380.50;1088186;39;20600;-79
2021/11/08 03:41:51;;;;;;;11.82;7.00;;;;;;;6.82;81.16;100385.59;1087705;54;20061;-78
2021/11/08 03:42:55;;;;;;;11.10;7.68;;;;;;;6.81;81.42;100389.19;1087674;54;20030;-80
2021/11/08 03:43:57;;;;;;;11.38;7.10;;;;;;;6.80;81.39;100388.38;1087671;54;20035;-80
2021/11/08 03:45:01;;;;;;;9.30;7.03;;;;;;;6.82;81.25;100385.59;1092194;39;20627;-80
2021/11/08 03:46:03;;;;;;;9.38;6.60;;;;;;;6.80;81.23;100388.38;1087699;54;20057;-78
2021/11/08 03:47:08;;;;;;;9.75;7.15;;;;;;;6.75;81.06;100387.00;1087609;54;20042;-78
2021/11/08 03:48:11;;;;;;;8.18;6.20;;;;;;;6.83;81.42;100387.28;1087812;54;20030;-79
2021/11/08 03:49:16;;;;;;;11.48;6.60;;;;;;;6.80;81.33;100387.53;1088138;54;20041;-80
2021/11/08 03:50:17;;;;;;;11.25;7.13;;;;;;;6.74;81.42;100391.47;1088826;46;20090;-78
2021/11/08 03:51:21;;;;;;;10.40;7.43;;;;;;;6.75;81.54;100389.66;1088016;54;20037;-79
2021/11/08 03:52:26;;;;;;;14.43;8.15;;;;;;;6.70;81.36;100390.84;1087970;54;20039;-79
2021/11/08 03:53:30;;;;;;;12.20;7.80;;;;;;;6.68;81.40;100392.78;1089012;46;20070;-79
2021/11/08 03:54:32;;;;;;;9.77;7.38;;;;;;;6.72;81.30;100396.06;1089215;46;20034;-80
2021/11/08 03:55:36;;;;;;;10.40;7.38;;;;;;;6.70;81.03;100395.31;1088241;54;20037;-79
2021/11/08 03:56:41;;;;;;;10.55;7.55;;;;;;;6.70;81.34;100398.81;1088260;54;20030;-79
2021/11/08 03:57:44;;;;;;;10.40;6.68;;;;;;;6.71;81.17;100402.31;1091127;39;20642;-79
2021/11/08 03:58:50;;;;;;;11.10;7.35;;;;;;;6.70;81.27;100396.16;1088239;54;20040;-79
2021/11/08 03:59:51;;;;;;;9.05;6.72;;;;;;;6.71;81.16;100397.00;1088106;54;20030;-79
2021/11/08 04:00:56;;;;;;;8.02;6.10;;;;;;;6.70;81.16;100398.81;1087993;54;20055;-79
2021/11/08 04:01:57;;;;;;;7.75;6.07;;;;;;;6.70;80.89;100400.63;1089533;39;20697;-79
2021/11/08 04:03:02;;;;;;;8.30;5.50;;;;;;;6.71;81.19;100402.31;1087400;54;20037;-80
2021/11/08 04:04:08;;;;;;;8.07;5.40;;;;;;;6.67;81.13;100404.34;1088067;54;20027;-79
2021/11/08 04:05:11;;;;;;;13.20;8.93;;;;;;;6.25;82.18;100403.78;1088131;54;20035;-80
2021/11/08 04:06:17;;;;;;;11.63;9.05;;;;;;;6.09;82.79;100406.69;1088074;54;20037;-80
2021/11/08 04:07:19;;;;;;;14.75;9.05;;;;;;;6.16;82.84;100407.09;1088441;39;20642;-79
2021/11/08 04:08:26;;;;;;;11.20;8.05;;;;;;;6.28;82.50;100403.59;1087922;54;20035;-78
2021/11/08 04:09:28;;;;;;;9.30;7.43;;;;;;;6.37;82.29;100410.06;1089463;39;20666;-78
2021/11/08 04:10:34;;;;;;;10.02;7.85;;;;;;;6.42;81.97;100415.88;1088060;54;20086;-79
2021/11/08 04:11:38;;;;;;;11.45;7.93;;;;;;;6.45;81.78;100410.38;1087975;54;21056;-78
2021/11/08 04:12:40;;;;;;;9.82;6.63;;;;;;;6.47;81.77;100412.91;1087913;54;20042;-78
2021/11/08 04:13:44;;;;;;;9.93;6.95;;;;;;;6.38;81.93;100414.38;1087976;54;20042;-79
2021/11/08 04:14:47;;;;;;;9.50;6.97;;;;;;;6.29;82.15;100409.72;1089538;46;20030;-80
2021/11/08 04:15:51;;;;;;;10.93;7.90;;;;;;;6.15;82.47;100410.69;1088239;54;20035;-79
2021/11/08 04:16:53;;;;;;;12.55;8.43;;;;;;;6.05;82.98;100414.00;1088116;54;20038;-79
2021/11/08 04:17:58;;;;;;;12.43;8.50;;;;;;;6.01;83.33;100414.31;1088099;54;20019;-79
2021/11/08 04:19:01;;;;;;;12.57;8.65;;;;;;;6.03;83.08;100417.72;1088036;54;20777;-80
2021/11/08 04:20:06;;;;;;;10.45;8.05;;;;;;;6.17;82.84;100416.75;1088147;54;20031;-79
2021/11/08 04:21:11;;;;;;;8.55;6.75;;;;;;;6.27;82.62;100417.81;1088130;54;20090;-78
2021/11/08 04:22:12;;;;;;;10.35;7.03;;;;;;;6.32;82.30;100417.50;1088116;54;20038;-77
2021/11/08 04:23:19;;;;;;;9.18;6.72;;;;;;;6.40;82.03;100418.66;1088466;39;20690;-79
2021/11/08 04:24:23;;;;;;;8.27;6.10;;;;;;;6.45;81.71;100417.47;1088086;54;20034;-79
2021/11/08 04:25:28;;;;;;;8.55;6.13;;;;;;;6.47;81.66;100418.22;1088122;54;20030;-78
2021/11/08 04:26:33;;;;;;;8.90;6.57;;;;;;;6.48;81.71;100417.25;1088878;46;20023;-79
2021/11/08 04:27:37;;;;;;;7.43;5.53;;;;;;;6.51;81.69;100417.03;1088001;54;20106;-79
2021/11/08 04:28:41;;;;;;;8.32;5.63;;;;;;;6.52;81.57;100410.75;1088065;54;20031;-78
2021/11/08 04:29:43;;;;;;;7.60;5.47;;;;;;;6.56;81.33;100412.25;1088088;54;20038;-80
2021/11/08 04:30:47;;;;;;;8.00;5.40;;;;;;;6.57;81.29;100413.94;1093010;39;20987;-79
2021/11/08 04:31:50;;;;;;;8.00;5.93;;;;;;;6.60;81.38;100415.53;1088093;54;20035;-79
2021/11/08 04:33:13;;;;;;;10.10;6.97;;;;;;;6.58;81.51;100414.78;1087937;54;20056;-79
2021/11/08 04:34:23;;;;;;;8.07;6.32;;;;;;;6.53;81.30;100415.97;1088083;54;20034;-79
2021/11/08 04:35:31;;;;;;;8.77;6.38;;;;;;;6.53;81.52;100417.75;1094653;39;20704;-78
2021/11/08 04:38:09;;;;;;;8.55;6.53;;;;;;;6.50;81.47;100418.84;1093612;39;20960;-78
2021/11/08 04:39:25;;;;;;;8.95;6.25;;;;;;;6.51;81.53;100420.53;1088047;54;20065;-79
2021/11/08 04:40:33;;;;;;;8.38;6.47;;;;;;;6.49;81.64;100422.44;1088070;54;20040;-79
2021/11/08 04:41:43;;;;;;;7.18;5.50;;;;;;;6.54;81.75;100419.47;1087977;54;20034;-78
2021/11/08 04:42:54;;;;;;;8.75;7.05;;;;;;;6.52;81.40;100421.38;1087981;54;20031;-78
2021/11/08 04:44:09;;;;;;;7.85;6.00;;;;;;;6.54;81.55;100424.78;1087916;54;20038;-79
2021/11/08 04:45:28;;;;;;;10.10;6.63;;;;;;;6.45;82.01;100425.44;1088023;54;20054;-80
2021/11/08 04:48:06;;;;;;;10.50;7.25;;;;;;;6.47;81.80;100436.81;1087898;54;20034;-79
2021/11/08 04:49:15;;;;;;;9.85;7.32;;;;;;;6.44;81.84;100427.25;1087985;54;20786;-80
2021/11/08 04:50:25;;;;;;;8.60;6.40;;;;;;;6.52;81.85;100427.56;1090965;39;21060;-79
2021/11/08 04:51:39;;;;;;;8.05;6.18;;;;;;;6.59;81.50;100429.75;1088006;54;20271;-80
2021/11/08 04:54:07;;;;;;;8.25;5.90;;;;;;;6.68;81.48;100422.00;1087417;54;20806;-79
2021/11/08 04:55:15;;;;;;;7.78;6.15;;;;;;;6.68;81.21;100423.78;1087626;54;20041;-80
2021/11/08 18:15:17;;;;;;;7.70;3.22;;;;;;;9.52;60.30;100661.66;1090304;46;20018;-78
2021/11/08 18:16:23;;;;;;;9.85;3.95;;;;;;;9.57;60.15;100658.59;1088251;54;20030;-81
2021/11/08 18:17:24;;;;;;;7.40;3.70;;;;;;;9.60;60.02;100663.72;1087624;54;20030;-81
2021/11/08 18:30:12;;;;;;;13.45;6.90;;;;;;;9.69;61.01;100662.97;1087895;54;20015;-80
2021/11/08 18:31:21;;;;;;;15.57;6.07;;;;;;;9.69;60.68;100657.63;1087993;54;20062;-79
2021/11/08 18:32:28;;;;;;;10.85;5.60;;;;;;;9.72;61.10;100656.53;1088275;54;20083;-81
2021/11/08 18:38:56;;;;;;;9.35;4.00;;;;;;;9.79;60.97;100668.41;1075097;54;20038;-82
2021/11/08 18:40:00;;;;;;;11.00;4.10;;;;;;;9.78;60.71;100670.22;1092556;46;20015;-79
2021/11/08 18:41:07;;;;;;;7.32;3.15;;;;;;;9.80;60.59;100657.63;1088225;54;20022;-80
2021/11/08 18:42:12;;;;;;;7.40;3.45;;;;;;;9.83;61.03;100669.84;1088111;54;20042;-80
2021/11/08 18:43:15;;;;;;;8.05;3.88;;;;;;;9.79;61.11;100666.59;1087978;54;20038;-79
2021/11/08 18:44:20;;;;;;;10.68;4.20;;;;;;;9.75;60.89;100670.47;1087944;54;20034;-79